EDT,Max TemperatureF,Mean TemperatureF,Min TemperatureF,Max Dew PointF,MeanDew PointF,Min DewpointF,Max Humidity, Mean Humidity, Min Humidity, Max Sea Level PressureIn, Mean Sea Level PressureIn, Min Sea Level PressureIn, Max VisibilityMiles, Mean VisibilityMiles, Min VisibilityMiles, Max Wind SpeedMPH, Mean Wind SpeedMPH, Max Gust SpeedMPH,PrecipitationIn, CloudCover, Events, WindDirDegrees
2014-3-1,55,47,39,39,32,18,76,53,32,30.27,30.21,30.16,10,10,10,13,4,,0.00,8,,218
2014-3-2,71,56,42,48,44,37,87,63,43,30.21,30.08,29.90,10,10,10,16,3,24,0.00,6,,204
2014-3-3,55,40,24,48,31,19,100,90,74,30.26,30.04,29.83,10,8,2,17,5,,0.00,8,,13
2014-3-4,37,30,24,30,25,19,87,78,70,30.26,30.20,30.16,10,10,10,9,5,,0.00,8,,41
2014-3-5,57,42,26,36,30,25,100,71,33,30.21,30.15,30.08,10,9,3,7,1,,0.00,0,,33
2014-3-6,55,44,33,30,28,25,81,56,33,30.18,30.09,30.01,10,10,10,8,3,,0.00,2,,49
2014-3-7,60,48,37,39,34,28,93,64,42,30.06,30.00,29.95,10,10,10,6,1,,0.00,3,,24
2014-3-8,68,48,28,39,33,28,100,62,23,30.16,30.10,30.03,10,10,10,10,2,,0.00,0,,232
2014-3-9,62,48,35,39,35,27,100,65,32,30.23,30.17,30.12,10,10,10,8,1,,0.00,0,,324
2014-3-10,71,50,30,43,36,30,100,63,29,30.15,30.03,29.91,10,10,10,10,2,,0.00,2,,221
2014-3-11,73,53,33,50,42,34,100,63,31,29.93,29.83,29.70,10,10,9,8,1,,0.00,0,,210
2014-3-12,68,52,35,59,43,19,100,73,52,30.03,29.71,29.51,10,9,4,24,8,34,0.00,6,,269
2014-3-13,46,37,28,21,16,10,69,48,23,30.25,30.17,30.03,10,10,10,12,5,,0.00,1,,320
2014-3-14,62,42,21,30,23,19,93,51,20,30.28,30.18,30.05,10,10,10,16,3,18,0.00,0,,206
2014-3-15,66,50,33,39,36,30,87,56,34,30.15,30.08,30.01,10,10,10,7,2,,0.00,1,,214
2014-3-16,55,50,44,52,45,39,100,88,76,30.02,29.86,29.67,10,8,1,9,1,,0.00,7,,57
2014-3-17,,,,,,,,,,,,,,,,,,,,,,
2014-3-18,53,46,39,45,42,39,100,88,71,30.04,29.99,29.95,10,9,5,7,3,,0.00,3,,209
2014-3-19,55,47,39,45,43,39,100,81,63,30.09,30.06,30.01,10,10,10,15,5,,0.00,6,,209
2014-3-20,59,46,33,45,31,18,100,63,21,30.20,30.13,30.08,10,9,0,10,2,,0.00,0,,338
2014-3-21,68,47,26,34,27,19,100,57,17,30.17,30.10,30.02,10,10,8,12,2,,0.00,0,,217
2014-3-22,69,51,33,45,37,32,100,63,33,30.08,30.04,30.00,10,10,8,7,1,,0.00,1,,230
2014-3-23,55,47,37,43,36,25,100,71,31,30.25,30.12,30.00,10,9,3,14,3,,0.00,3,,5
2014-3-24,53,38,24,30,22,14,100,54,21,30.27,30.16,30.02,10,10,10,8,2,,0.00,1,,20
2014-3-25,44,36,28,30,19,7,70,49,33,30.24,30.06,29.94,10,10,10,22,6,28,0.00,3,,316
2014-3-26,46,34,23,19,11,7,74,44,20,30.38,30.30,30.24,10,10,10,8,3,,0.00,0,,347
2014-3-27,66,45,24,28,20,10,86,44,12,30.31,30.21,30.09,10,10,10,15,3,21,0.00,1,,176
2014-3-28,64,58,51,54,51,32,94,78,34,30.14,30.07,30.02,10,10,4,13,5,24,0.00,7,,200
2014-3-29,57,48,39,57,49,34,100,91,76,30.10,29.91,29.77,10,9,1,15,2,,0.00,8,,300
2014-3-30,60,48,35,36,30,21,93,59,23,30.22,30.16,30.10,10,10,10,14,7,,0.00,2,,344
2014-3-31,73,50,28,41,30,18,93,59,14,30.23,30.15,30.08,10,10,9,7,1,,0.00,0,,42